sensor_id;sensor_type;location;lat;lon;timestamp;temperature;humidity
4755;DHT22;2391;47.212;7.542;2023-03-01T00:01:27;2.00;90.60
4755;DHT22;2391;47.212;7.542;2023-03-01T00:03:54;2.00;90.70
4755;DHT22;2391;47.212;7.542;2023-03-01T00:06:21;1.90;90.80
4755;DHT22;2391;47.212;7.542;2023-03-01T00:08:47;1.90;90.80
4755;DHT22;2391;47.212;7.542;2023-03-01T00:11:16;1.90;90.90
4755;DHT22;2391;47.212;7.542;2023-03-01T00:13:43;2.00;90.90
4755;DHT22;2391;47.212;7.542;2023-03-01T00:16:12;2.00;90.80
4755;DHT22;2391;47.212;7.542;2023-03-01T00:18:39;1.90;90.80
4755;DHT22;2391;47.212;7.542;2023-03-01T00:21:05;1.90;90.90
4755;DHT22;2391;47.212;7.542;2023-03-01T00:23:31;1.90;90.90
4755;DHT22;2391;47.212;7.542;2023-03-01T00:25:57;1.90;91.00
4755;DHT22;2391;47.212;7.542;2023-03-01T00:28:23;1.90;91.00
4755;DHT22;2391;47.212;7.542;2023-03-01T00:30:49;1.90;91.00
4755;DHT22;2391;47.212;7.542;2023-03-01T00:33:15;1.90;90.90
4755;DHT22;2391;47.212;7.542;2023-03-01T00:35:40;1.90;90.90
4755;DHT22;2391;47.212;7.542;2023-03-01T00:38:06;1.90;91.00
4755;DHT22;2391;47.212;7.542;2023-03-01T00:40:34;1.90;91.00
4755;DHT22;2391;47.212;7.542;2023-03-01T00:43:01;1.90;91.10
4755;DHT22;2391;47.212;7.542;2023-03-01T00:45:27;1.80;91.10
4755;DHT22;2391;47.212;7.542;2023-03-01T00:47:53;1.80;91.20
4755;DHT22;2391;47.212;7.542;2023-03-01T00:50:20;1.90;91.10
4755;DHT22;2391;47.212;7.542;2023-03-01T00:52:46;1.90;91.00
4755;DHT22;2391;47.212;7.542;2023-03-01T00:55:12;2.00;91.00
4755;DHT22;2391;47.212;7.542;2023-03-01T00:57:38;1.90;91.00
4755;DHT22;2391;47.212;7.542;2023-03-01T01:00:07;1.80;91.10
4755;DHT22;2391;47.212;7.542;2023-03-01T01:02:35;1.80;91.20
4755;DHT22;2391;47.212;7.542;2023-03-01T01:05:01;1.90;91.20
4755;DHT22;2391;47.212;7.542;2023-03-01T01:07:27;1.90;91.10
4755;DHT22;2391;47.212;7.542;2023-03-01T01:09:52;2.00;91.00
4755;DHT22;2391;47.212;7.542;2023-03-01T01:12:18;2.00;91.10
4755;DHT22;2391;47.212;7.542;2023-03-01T01:14:44;2.00;90.80
4755;DHT22;2391;47.212;7.542;2023-03-01T01:17:09;2.10;90.80
4755;DHT22;2391;47.212;7.542;2023-03-01T01:19:35;2.10;90.70
4755;DHT22;2391;47.212;7.542;2023-03-01T01:22:01;2.20;90.60
4755;DHT22;2391;47.212;7.542;2023-03-01T01:24:27;2.30;90.50
4755;DHT22;2391;47.212;7.542;2023-03-01T01:26:53;2.20;90.60
4755;DHT22;2391;47.212;7.542;2023-03-01T01:29:18;2.10;90.70
4755;DHT22;2391;47.212;7.542;2023-03-01T01:31:45;2.10;90.80
4755;DHT22;2391;47.212;7.542;2023-03-01T01:34:14;2.10;90.70
4755;DHT22;2391;47.212;7.542;2023-03-01T01:36:40;2.00;90.70
4755;DHT22;2391;47.212;7.542;2023-03-01T01:39:06;2.00;90.90
4755;DHT22;2391;47.212;7.542;2023-03-01T01:41:33;2.00;90.80
4755;DHT22;2391;47.212;7.542;2023-03-01T01:46:58;2.00;90.80
4755;DHT22;2391;47.212;7.542;2023-03-01T01:57:11;1.90;90.80
4755;DHT22;2391;47.212;7.542;2023-03-01T01:59:37;2.00;90.90
4755;DHT22;2391;47.212;7.542;2023-03-01T02:02:04;2.10;90.90
4755;DHT22;2391;47.212;7.542;2023-03-01T02:04:31;2.10;90.80
4755;DHT22;2391;47.212;7.542;2023-03-01T02:09:27;2.00;90.70
4755;DHT22;2391;47.212;7.542;2023-03-01T02:11:53;2.00;90.80
4755;DHT22;2391;47.212;7.542;2023-03-01T02:14:19;2.00;90.90
4755;DHT22;2391;47.212;7.542;2023-03-01T02:16:46;2.00;90.90
4755;DHT22;2391;47.212;7.542;2023-03-01T02:19:17;2.10;90.80
4755;DHT22;2391;47.212;7.542;2023-03-01T02:21:57;2.20;90.70
4755;DHT22;2391;47.212;7.542;2023-03-01T02:27:03;2.20;90.70
4755;DHT22;2391;47.212;7.542;2023-03-01T02:29:29;2.20;90.70
4755;DHT22;2391;47.212;7.542;2023-03-01T02:31:58;2.20;90.60
4755;DHT22;2391;47.212;7.542;2023-03-01T02:34:25;2.20;90.60
4755;DHT22;2391;47.212;7.542;2023-03-01T02:36:58;2.30;90.60
4755;DHT22;2391;47.212;7.542;2023-03-01T02:39:27;2.30;90.50
4755;DHT22;2391;47.212;7.542;2023-03-01T02:41:56;2.20;90.60
4755;DHT22;2391;47.212;7.542;2023-03-01T02:44:22;2.20;90.60
4755;DHT22;2391;47.212;7.542;2023-03-01T02:46:53;2.30;90.50
4755;DHT22;2391;47.212;7.542;2023-03-01T02:49:26;2.30;90.50
4755;DHT22;2391;47.212;7.542;2023-03-01T02:52:11;2.40;90.50
4755;DHT22;2391;47.212;7.542;2023-03-01T02:57:28;2.30;90.40
4755;DHT22;2391;47.212;7.542;2023-03-01T02:59:56;2.40;90.40
4755;DHT22;2391;47.212;7.542;2023-03-01T03:02:26;2.30;90.40
4755;DHT22;2391;47.212;7.542;2023-03-01T03:05:08;2.30;90.50
4755;DHT22;2391;47.212;7.542;2023-03-01T03:07:35;2.30;90.50
4755;DHT22;2391;47.212;7.542;2023-03-01T03:10:04;2.30;90.50
4755;DHT22;2391;47.212;7.542;2023-03-01T03:12:30;2.40;90.60
4755;DHT22;2391;47.212;7.542;2023-03-01T03:14:56;2.40;90.50
4755;DHT22;2391;47.212;7.542;2023-03-01T03:17:22;2.50;90.40
4755;DHT22;2391;47.212;7.542;2023-03-01T03:19:47;2.50;90.30
4755;DHT22;2391;47.212;7.542;2023-03-01T03:22:14;2.40;90.30
4755;DHT22;2391;47.212;7.542;2023-03-01T03:24:40;2.30;90.70
4755;DHT22;2391;47.212;7.542;2023-03-01T03:27:06;2.40;90.50
4755;DHT22;2391;47.212;7.542;2023-03-01T03:29:33;2.40;90.50
4755;DHT22;2391;47.212;7.542;2023-03-01T03:31:59;2.40;90.60
4755;DHT22;2391;47.212;7.542;2023-03-01T03:34:24;2.50;90.60
4755;DHT22;2391;47.212;7.542;2023-03-01T03:36:54;2.50;90.40
4755;DHT22;2391;47.212;7.542;2023-03-01T03:39:26;2.60;90.40
4755;DHT22;2391;47.212;7.542;2023-03-01T03:41:53;2.50;90.40
4755;DHT22;2391;47.212;7.542;2023-03-01T03:44:19;2.40;90.50
4755;DHT22;2391;47.212;7.542;2023-03-01T03:46:45;2.40;90.60
4755;DHT22;2391;47.212;7.542;2023-03-01T03:49:10;2.50;90.60
4755;DHT22;2391;47.212;7.542;2023-03-01T03:51:36;2.50;90.50
4755;DHT22;2391;47.212;7.542;2023-03-01T03:54:02;2.50;90.40
4755;DHT22;2391;47.212;7.542;2023-03-01T03:56:28;2.50;90.40
4755;DHT22;2391;47.212;7.542;2023-03-01T03:58:54;2.60;90.40
4755;DHT22;2391;47.212;7.542;2023-03-01T04:01:20;2.60;90.50
4755;DHT22;2391;47.212;7.542;2023-03-01T04:03:45;2.60;90.50
4755;DHT22;2391;47.212;7.542;2023-03-01T04:06:14;2.50;90.40
4755;DHT22;2391;47.212;7.542;2023-03-01T04:08:40;2.40;90.50
4755;DHT22;2391;47.212;7.542;2023-03-01T04:11:06;2.40;90.60
4755;DHT22;2391;47.212;7.542;2023-03-01T04:13:52;2.40;90.70
4755;DHT22;2391;47.212;7.542;2023-03-01T04:16:18;2.40;90.80
4755;DHT22;2391;47.212;7.542;2023-03-01T04:18:45;2.30;90.80
4755;DHT22;2391;47.212;7.542;2023-03-01T04:21:11;2.20;90.80
4755;DHT22;2391;47.212;7.542;2023-03-01T04:23:38;2.20;90.90
4755;DHT22;2391;47.212;7.542;2023-03-01T04:26:04;2.30;90.90
4755;DHT22;2391;47.212;7.542;2023-03-01T04:28:33;2.30;90.90
4755;DHT22;2391;47.212;7.542;2023-03-01T04:31:06;2.30;90.90
4755;DHT22;2391;47.212;7.542;2023-03-01T04:33:31;2.30;90.80
4755;DHT22;2391;47.212;7.542;2023-03-01T04:35:56;2.30;90.90
4755;DHT22;2391;47.212;7.542;2023-03-01T04:38:23;2.30;91.00
4755;DHT22;2391;47.212;7.542;2023-03-01T04:40:48;2.30;91.00
4755;DHT22;2391;47.212;7.542;2023-03-01T04:43:14;2.30;91.00
4755;DHT22;2391;47.212;7.542;2023-03-01T04:45:40;2.30;91.00
4755;DHT22;2391;47.212;7.542;2023-03-01T04:48:06;2.30;91.10
4755;DHT22;2391;47.212;7.542;2023-03-01T04:50:32;2.30;91.10
4755;DHT22;2391;47.212;7.542;2023-03-01T04:52:58;2.30;91.10
4755;DHT22;2391;47.212;7.542;2023-03-01T04:55:27;2.30;91.10
4755;DHT22;2391;47.212;7.542;2023-03-01T04:57:54;2.30;91.20
4755;DHT22;2391;47.212;7.542;2023-03-01T05:00:21;2.40;91.20
4755;DHT22;2391;47.212;7.542;2023-03-01T05:02:51;2.40;91.00
4755;DHT22;2391;47.212;7.542;2023-03-01T05:07:57;2.50;91.00
4755;DHT22;2391;47.212;7.542;2023-03-01T05:10:23;2.40;91.00
4755;DHT22;2391;47.212;7.542;2023-03-01T05:12:49;2.40;91.10
4755;DHT22;2391;47.212;7.542;2023-03-01T05:15:15;2.30;91.20
4755;DHT22;2391;47.212;7.542;2023-03-01T05:17:41;2.30;91.30
4755;DHT22;2391;47.212;7.542;2023-03-01T05:20:07;2.40;91.30
4755;DHT22;2391;47.212;7.542;2023-03-01T05:22:34;2.40;91.20
4755;DHT22;2391;47.212;7.542;2023-03-01T05:25:02;2.40;91.30
4755;DHT22;2391;47.212;7.542;2023-03-01T05:27:28;2.40;91.20
4755;DHT22;2391;47.212;7.542;2023-03-01T05:29:55;2.40;91.20
4755;DHT22;2391;47.212;7.542;2023-03-01T05:32:21;2.40;91.20
4755;DHT22;2391;47.212;7.542;2023-03-01T05:34:47;2.40;91.20
4755;DHT22;2391;47.212;7.542;2023-03-01T05:37:13;2.30;91.60
4755;DHT22;2391;47.212;7.542;2023-03-01T05:39:39;2.30;91.30
4755;DHT22;2391;47.212;7.542;2023-03-01T05:42:10;2.40;91.40
4755;DHT22;2391;47.212;7.542;2023-03-01T05:44:36;2.40;91.30
4755;DHT22;2391;47.212;7.542;2023-03-01T05:47:03;2.40;91.30
4755;DHT22;2391;47.212;7.542;2023-03-01T05:49:28;2.50;91.30
4755;DHT22;2391;47.212;7.542;2023-03-01T05:51:55;2.50;91.30
4755;DHT22;2391;47.212;7.542;2023-03-01T05:54:21;2.50;91.20
4755;DHT22;2391;47.212;7.542;2023-03-01T05:56:47;2.50;91.30
4755;DHT22;2391;47.212;7.542;2023-03-01T05:59:13;2.50;91.30
4755;DHT22;2391;47.212;7.542;2023-03-01T06:01:40;2.50;91.20
4755;DHT22;2391;47.212;7.542;2023-03-01T06:04:06;2.50;91.20
4755;DHT22;2391;47.212;7.542;2023-03-01T06:06:36;2.50;91.20
4755;DHT22;2391;47.212;7.542;2023-03-01T06:09:04;2.50;91.30
4755;DHT22;2391;47.212;7.542;2023-03-01T06:11:30;2.50;91.20
4755;DHT22;2391;47.212;7.542;2023-03-01T06:13:56;2.50;91.20
4755;DHT22;2391;47.212;7.542;2023-03-01T06:16:21;2.50;91.20
4755;DHT22;2391;47.212;7.542;2023-03-01T06:18:47;2.50;91.20
4755;DHT22;2391;47.212;7.542;2023-03-01T06:21:13;2.50;91.30
4755;DHT22;2391;47.212;7.542;2023-03-01T06:23:39;2.50;91.30
4755;DHT22;2391;47.212;7.542;2023-03-01T06:26:06;2.40;91.40
4755;DHT22;2391;47.212;7.542;2023-03-01T06:28:32;2.40;91.50
4755;DHT22;2391;47.212;7.542;2023-03-01T06:30:58;2.50;91.50
4755;DHT22;2391;47.212;7.542;2023-03-01T06:33:23;2.50;91.40
4755;DHT22;2391;47.212;7.542;2023-03-01T06:35:51;2.60;91.40
4755;DHT22;2391;47.212;7.542;2023-03-01T06:38:17;2.70;91.30
4755;DHT22;2391;47.212;7.542;2023-03-01T06:40:45;2.80;91.20
4755;DHT22;2391;47.212;7.542;2023-03-01T06:43:12;2.70;91.20
4755;DHT22;2391;47.212;7.542;2023-03-01T06:45:38;2.70;91.20
4755;DHT22;2391;47.212;7.542;2023-03-01T06:48:05;2.70;91.20
4755;DHT22;2391;47.212;7.542;2023-03-01T06:50:33;2.60;91.20
4755;DHT22;2391;47.212;7.542;2023-03-01T06:52:59;2.50;91.30
4755;DHT22;2391;47.212;7.542;2023-03-01T06:55:25;2.50;91.40
4755;DHT22;2391;47.212;7.542;2023-03-01T06:57:55;2.40;91.50
4755;DHT22;2391;47.212;7.542;2023-03-01T07:00:22;2.50;91.50
4755;DHT22;2391;47.212;7.542;2023-03-01T07:02:48;2.60;91.50
4755;DHT22;2391;47.212;7.542;2023-03-01T07:05:14;2.70;91.30
4755;DHT22;2391;47.212;7.542;2023-03-01T07:07:40;2.60;91.30
4755;DHT22;2391;47.212;7.542;2023-03-01T07:10:07;2.60;91.50
4755;DHT22;2391;47.212;7.542;2023-03-01T07:12:32;2.60;91.40
4755;DHT22;2391;47.212;7.542;2023-03-01T07:14:58;2.50;91.50
4755;DHT22;2391;47.212;7.542;2023-03-01T07:17:24;2.40;91.60
4755;DHT22;2391;47.212;7.542;2023-03-01T07:19:50;2.30;91.80
4755;DHT22;2391;47.212;7.542;2023-03-01T07:22:15;2.30;92.00
4755;DHT22;2391;47.212;7.542;2023-03-01T07:24:42;2.20;91.90
4755;DHT22;2391;47.212;7.542;2023-03-01T07:27:07;2.20;92.00
4755;DHT22;2391;47.212;7.542;2023-03-01T07:29:33;2.30;91.90
4755;DHT22;2391;47.212;7.542;2023-03-01T07:32:01;2.40;91.90
4755;DHT22;2391;47.212;7.542;2023-03-01T07:34:26;2.40;91.90
4755;DHT22;2391;47.212;7.542;2023-03-01T07:36:52;2.50;91.90
4755;DHT22;2391;47.212;7.542;2023-03-01T07:39:18;2.50;91.80
4755;DHT22;2391;47.212;7.542;2023-03-01T07:41:43;2.40;91.80
4755;DHT22;2391;47.212;7.542;2023-03-01T07:44:09;2.40;91.90
4755;DHT22;2391;47.212;7.542;2023-03-01T07:46:35;2.40;92.00
4755;DHT22;2391;47.212;7.542;2023-03-01T07:49:01;2.40;92.00
4755;DHT22;2391;47.212;7.542;2023-03-01T07:51:26;2.50;92.00
4755;DHT22;2391;47.212;7.542;2023-03-01T07:53:52;2.50;92.00
4755;DHT22;2391;47.212;7.542;2023-03-01T07:56:18;2.40;91.90
4755;DHT22;2391;47.212;7.542;2023-03-01T07:58:45;2.40;92.00
4755;DHT22;2391;47.212;7.542;2023-03-01T08:01:13;2.50;92.10
4755;DHT22;2391;47.212;7.542;2023-03-01T08:03:39;2.50;92.10
4755;DHT22;2391;47.212;7.542;2023-03-01T08:06:07;2.50;92.10
4755;DHT22;2391;47.212;7.542;2023-03-01T08:08:34;2.50;92.00
4755;DHT22;2391;47.212;7.542;2023-03-01T08:11:03;2.50;92.20
4755;DHT22;2391;47.212;7.542;2023-03-01T08:13:29;2.50;92.10
4755;DHT22;2391;47.212;7.542;2023-03-01T08:16:01;2.50;92.10
4755;DHT22;2391;47.212;7.542;2023-03-01T08:18:27;2.50;92.10
4755;DHT22;2391;47.212;7.542;2023-03-01T08:20:53;2.60;92.10
4755;DHT22;2391;47.212;7.542;2023-03-01T08:23:19;2.60;92.00
4755;DHT22;2391;47.212;7.542;2023-03-01T08:25:44;2.60;92.00
4755;DHT22;2391;47.212;7.542;2023-03-01T08:28:10;2.50;92.20
4755;DHT22;2391;47.212;7.542;2023-03-01T08:30:36;2.50;92.20
4755;DHT22;2391;47.212;7.542;2023-03-01T08:33:01;2.50;92.30
4755;DHT22;2391;47.212;7.542;2023-03-01T08:35:27;2.60;92.20
4755;DHT22;2391;47.212;7.542;2023-03-01T08:37:53;2.60;92.20
4755;DHT22;2391;47.212;7.542;2023-03-01T08:40:18;2.60;92.30
4755;DHT22;2391;47.212;7.542;2023-03-01T08:42:44;2.50;92.30
4755;DHT22;2391;47.212;7.542;2023-03-01T08:45:10;2.40;92.40
4755;DHT22;2391;47.212;7.542;2023-03-01T08:47:36;2.30;92.40
4755;DHT22;2391;47.212;7.542;2023-03-01T08:50:03;2.30;92.60
4755;DHT22;2391;47.212;7.542;2023-03-01T08:52:29;2.40;92.60
4755;DHT22;2391;47.212;7.542;2023-03-01T08:54:55;2.50;92.60
4755;DHT22;2391;47.212;7.542;2023-03-01T08:57:21;2.50;92.50
4755;DHT22;2391;47.212;7.542;2023-03-01T08:59:47;2.60;92.40
4755;DHT22;2391;47.212;7.542;2023-03-01T09:02:15;2.60;92.30
4755;DHT22;2391;47.212;7.542;2023-03-01T09:04:42;2.60;92.20
4755;DHT22;2391;47.212;7.542;2023-03-01T09:07:10;2.60;92.30
4755;DHT22;2391;47.212;7.542;2023-03-01T09:09:36;2.60;92.30
4755;DHT22;2391;47.212;7.542;2023-03-01T09:12:03;2.50;92.30
4755;DHT22;2391;47.212;7.542;2023-03-01T09:14:30;2.50;92.50
4755;DHT22;2391;47.212;7.542;2023-03-01T09:16:56;2.40;92.60
4755;DHT22;2391;47.212;7.542;2023-03-01T09:19:21;2.40;92.70
4755;DHT22;2391;47.212;7.542;2023-03-01T09:21:47;2.40;92.70
4755;DHT22;2391;47.212;7.542;2023-03-01T09:24:24;2.40;92.60
4755;DHT22;2391;47.212;7.542;2023-03-01T09:26:51;2.60;92.60
4755;DHT22;2391;47.212;7.542;2023-03-01T09:29:17;2.60;92.60
4755;DHT22;2391;47.212;7.542;2023-03-01T09:31:43;2.70;92.60
4755;DHT22;2391;47.212;7.542;2023-03-01T09:34:09;2.70;92.50
4755;DHT22;2391;47.212;7.542;2023-03-01T09:36:36;2.70;92.50
4755;DHT22;2391;47.212;7.542;2023-03-01T09:39:03;2.80;92.50
4755;DHT22;2391;47.212;7.542;2023-03-01T09:42:01;2.80;92.30
4755;DHT22;2391;47.212;7.542;2023-03-01T09:47:16;2.80;92.20
4755;DHT22;2391;47.212;7.542;2023-03-01T09:49:40;2.90;92.30
4755;DHT22;2391;47.212;7.542;2023-03-01T09:52:21;2.90;92.20
4755;DHT22;2391;47.212;7.542;2023-03-01T09:54:49;2.90;92.10
4755;DHT22;2391;47.212;7.542;2023-03-01T09:57:19;2.90;92.10
4755;DHT22;2391;47.212;7.542;2023-03-01T10:00:11;2.80;92.20
4755;DHT22;2391;47.212;7.542;2023-03-01T10:02:50;2.80;92.20
4755;DHT22;2391;47.212;7.542;2023-03-01T10:10:48;2.80;92.60
4755;DHT22;2391;47.212;7.542;2023-03-01T10:13:17;2.80;92.50
4755;DHT22;2391;47.212;7.542;2023-03-01T10:15:50;2.80;92.50
4755;DHT22;2391;47.212;7.542;2023-03-01T10:18:20;2.80;92.40
4755;DHT22;2391;47.212;7.542;2023-03-01T10:20:59;2.80;92.50
4755;DHT22;2391;47.212;7.542;2023-03-01T10:23:27;2.80;92.40
4755;DHT22;2391;47.212;7.542;2023-03-01T10:29:14;2.90;92.30
4755;DHT22;2391;47.212;7.542;2023-03-01T10:31:02;2.90;92.20
4755;DHT22;2391;47.212;7.542;2023-03-01T10:33:31;3.00;92.30
4755;DHT22;2391;47.212;7.542;2023-03-01T10:35:57;3.00;92.20
4755;DHT22;2391;47.212;7.542;2023-03-01T10:38:23;3.10;92.10
4755;DHT22;2391;47.212;7.542;2023-03-01T10:43:28;3.20;92.00
4755;DHT22;2391;47.212;7.542;2023-03-01T10:45:54;3.10;92.00
4755;DHT22;2391;47.212;7.542;2023-03-01T10:48:25;3.10;92.00
4755;DHT22;2391;47.212;7.542;2023-03-01T10:53:42;3.10;92.10
4755;DHT22;2391;47.212;7.542;2023-03-01T10:56:13;3.10;91.90
4755;DHT22;2391;47.212;7.542;2023-03-01T10:58:56;3.10;92.00
4755;DHT22;2391;47.212;7.542;2023-03-01T11:03:44;3.10;91.90
4755;DHT22;2391;47.212;7.542;2023-03-01T11:08:43;3.00;92.20
4755;DHT22;2391;47.212;7.542;2023-03-01T11:11:30;3.00;92.20
4755;DHT22;2391;47.212;7.542;2023-03-01T11:16:32;3.00;92.20
4755;DHT22;2391;47.212;7.542;2023-03-01T11:19:03;2.90;92.20
4755;DHT22;2391;47.212;7.542;2023-03-01T11:21:29;2.90;92.30
4755;DHT22;2391;47.212;7.542;2023-03-01T11:23:59;3.00;92.20
4755;DHT22;2391;47.212;7.542;2023-03-01T11:26:28;3.10;92.10
4755;DHT22;2391;47.212;7.542;2023-03-01T11:28:56;3.10;92.00
4755;DHT22;2391;47.212;7.542;2023-03-01T11:31:25;3.00;92.00
4755;DHT22;2391;47.212;7.542;2023-03-01T11:33:55;3.00;92.20
4755;DHT22;2391;47.212;7.542;2023-03-01T11:36:38;3.00;92.10
4755;DHT22;2391;47.212;7.542;2023-03-01T11:39:12;3.00;92.00
4755;DHT22;2391;47.212;7.542;2023-03-01T11:41:34;3.00;92.00
4755;DHT22;2391;47.212;7.542;2023-03-01T11:44:25;3.00;92.10
4755;DHT22;2391;47.212;7.542;2023-03-01T12:03:15;3.10;91.80
4755;DHT22;2391;47.212;7.542;2023-03-01T12:05:58;3.10;91.90
4755;DHT22;2391;47.212;7.542;2023-03-01T12:16:37;3.20;91.90
4755;DHT22;2391;47.212;7.542;2023-03-01T12:19:26;3.30;91.80
4755;DHT22;2391;47.212;7.542;2023-03-01T12:27:42;3.30;91.80
4755;DHT22;2391;47.212;7.542;2023-03-01T12:33:22;3.20;91.70
4755;DHT22;2391;47.212;7.542;2023-03-01T12:36:03;3.20;91.90
4755;DHT22;2391;47.212;7.542;2023-03-01T12:38:48;3.10;91.90
4755;DHT22;2391;47.212;7.542;2023-03-01T12:41:21;3.10;92.00
4755;DHT22;2391;47.212;7.542;2023-03-01T12:44:06;3.20;92.10
4755;DHT22;2391;47.212;7.542;2023-03-01T12:49:14;3.20;92.00
4755;DHT22;2391;47.212;7.542;2023-03-01T12:51:44;3.30;91.80
4755;DHT22;2391;47.212;7.542;2023-03-01T12:54:22;3.30;91.80
4755;DHT22;2391;47.212;7.542;2023-03-01T12:56:48;3.30;91.70
4755;DHT22;2391;47.212;7.542;2023-03-01T13:02:30;3.20;91.70
4755;DHT22;2391;47.212;7.542;2023-03-01T13:08:06;3.10;91.90
4755;DHT22;2391;47.212;7.542;2023-03-01T13:10:40;3.10;91.90
4755;DHT22;2391;47.212;7.542;2023-03-01T13:13:10;3.10;91.90
4755;DHT22;2391;47.212;7.542;2023-03-01T13:15:33;3.10;91.90
4755;DHT22;2391;47.212;7.542;2023-03-01T13:18:02;3.10;91.90
4755;DHT22;2391;47.212;7.542;2023-03-01T13:23:24;3.20;91.80
4755;DHT22;2391;47.212;7.542;2023-03-01T13:28:56;3.30;91.70
4755;DHT22;2391;47.212;7.542;2023-03-01T13:34:02;3.20;91.90
4755;DHT22;2391;47.212;7.542;2023-03-01T13:39:04;3.20;91.80
4755;DHT22;2391;47.212;7.542;2023-03-01T13:44:30;3.20;91.80
4755;DHT22;2391;47.212;7.542;2023-03-01T13:49:26;3.20;91.80
4755;DHT22;2391;47.212;7.542;2023-03-01T13:51:53;3.30;91.90
4755;DHT22;2391;47.212;7.542;2023-03-01T13:54:29;3.30;91.70
4755;DHT22;2391;47.212;7.542;2023-03-01T13:56:55;3.30;91.60
4755;DHT22;2391;47.212;7.542;2023-03-01T13:59:22;3.40;91.50
4755;DHT22;2391;47.212;7.542;2023-03-01T14:01:55;3.40;91.40
4755;DHT22;2391;47.212;7.542;2023-03-01T14:04:30;3.40;91.40
4755;DHT22;2391;47.212;7.542;2023-03-01T14:07:20;3.50;91.40
4755;DHT22;2391;47.212;7.542;2023-03-01T14:09:51;3.50;91.30
4755;DHT22;2391;47.212;7.542;2023-03-01T14:17:52;3.40;91.30
4755;DHT22;2391;47.212;7.542;2023-03-01T14:20:27;3.40;91.40
4755;DHT22;2391;47.212;7.542;2023-03-01T14:22:56;3.40;91.30
4755;DHT22;2391;47.212;7.542;2023-03-01T14:25:31;3.40;91.40
4755;DHT22;2391;47.212;7.542;2023-03-01T14:30:52;3.30;91.30
4755;DHT22;2391;47.212;7.542;2023-03-01T14:33:35;3.30;91.30
4755;DHT22;2391;47.212;7.542;2023-03-01T14:36:11;3.30;91.50
4755;DHT22;2391;47.212;7.542;2023-03-01T14:38:45;3.20;91.50
4755;DHT22;2391;47.212;7.542;2023-03-01T14:41:11;3.20;91.50
4755;DHT22;2391;47.212;7.542;2023-03-01T14:43:41;3.20;91.50
4755;DHT22;2391;47.212;7.542;2023-03-01T14:46:23;3.30;91.70
4755;DHT22;2391;47.212;7.542;2023-03-01T14:48:49;3.30;91.60
4755;DHT22;2391;47.212;7.542;2023-03-01T14:51:15;3.30;91.60
4755;DHT22;2391;47.212;7.542;2023-03-01T14:53:41;3.20;91.60
4755;DHT22;2391;47.212;7.542;2023-03-01T14:56:13;3.20;91.60
4755;DHT22;2391;47.212;7.542;2023-03-01T14:58:39;3.20;91.50
4755;DHT22;2391;47.212;7.542;2023-03-01T15:01:05;3.30;91.50
4755;DHT22;2391;47.212;7.542;2023-03-01T15:03:43;3.30;91.50
4755;DHT22;2391;47.212;7.542;2023-03-01T15:06:10;3.30;91.40
4755;DHT22;2391;47.212;7.542;2023-03-01T15:08:46;3.30;91.40
4755;DHT22;2391;47.212;7.542;2023-03-01T15:11:30;3.30;91.40
4755;DHT22;2391;47.212;7.542;2023-03-01T15:13:56;3.20;91.50
4755;DHT22;2391;47.212;7.542;2023-03-01T15:16:33;3.20;91.50
4755;DHT22;2391;47.212;7.542;2023-03-01T15:19:02;3.20;91.50
4755;DHT22;2391;47.212;7.542;2023-03-01T15:21:33;3.20;91.50
4755;DHT22;2391;47.212;7.542;2023-03-01T15:24:14;3.30;91.40
4755;DHT22;2391;47.212;7.542;2023-03-01T15:26:44;3.30;91.30
4755;DHT22;2391;47.212;7.542;2023-03-01T15:29:18;3.30;91.30
4755;DHT22;2391;47.212;7.542;2023-03-01T15:34:25;3.30;91.30
4755;DHT22;2391;47.212;7.542;2023-03-01T15:36:54;3.40;91.30
4755;DHT22;2391;47.212;7.542;2023-03-01T15:39:41;3.30;91.30
4755;DHT22;2391;47.212;7.542;2023-03-01T15:42:35;3.30;91.50
4755;DHT22;2391;47.212;7.542;2023-03-01T15:44:42;3.20;91.40
4755;DHT22;2391;47.212;7.542;2023-03-01T15:47:29;3.30;91.50
4755;DHT22;2391;47.212;7.542;2023-03-01T15:49:55;3.30;91.50
4755;DHT22;2391;47.212;7.542;2023-03-01T15:52:29;3.30;91.40
4755;DHT22;2391;47.212;7.542;2023-03-01T15:55:01;3.30;91.70
4755;DHT22;2391;47.212;7.542;2023-03-01T15:57:28;3.30;91.40
4755;DHT22;2391;47.212;7.542;2023-03-01T15:59:54;3.40;91.30
4755;DHT22;2391;47.212;7.542;2023-03-01T16:02:22;3.40;91.20
4755;DHT22;2391;47.212;7.542;2023-03-01T16:04:48;3.50;91.10
4755;DHT22;2391;47.212;7.542;2023-03-01T16:07:14;3.50;90.90
4755;DHT22;2391;47.212;7.542;2023-03-01T16:09:40;3.50;90.90
4755;DHT22;2391;47.212;7.542;2023-03-01T16:12:10;3.50;90.90
4755;DHT22;2391;47.212;7.542;2023-03-01T16:14:39;3.50;90.80
4755;DHT22;2391;47.212;7.542;2023-03-01T16:17:04;3.40;91.10
4755;DHT22;2391;47.212;7.542;2023-03-01T16:19:30;3.40;90.80
4755;DHT22;2391;47.212;7.542;2023-03-01T16:21:56;3.40;90.90
4755;DHT22;2391;47.212;7.542;2023-03-01T16:24:22;3.40;91.00
4755;DHT22;2391;47.212;7.542;2023-03-01T16:26:48;3.30;91.00
4755;DHT22;2391;47.212;7.542;2023-03-01T16:29:13;3.40;91.00
4755;DHT22;2391;47.212;7.542;2023-03-01T16:31:41;3.50;91.00
4755;DHT22;2391;47.212;7.542;2023-03-01T16:34:06;3.60;90.90
4755;DHT22;2391;47.212;7.542;2023-03-01T16:36:32;3.60;90.70
4755;DHT22;2391;47.212;7.542;2023-03-01T16:38:59;3.50;90.70
4755;DHT22;2391;47.212;7.542;2023-03-01T16:41:27;3.40;90.80
4755;DHT22;2391;47.212;7.542;2023-03-01T16:43:52;3.30;91.00
4755;DHT22;2391;47.212;7.542;2023-03-01T16:46:21;3.40;90.90
4755;DHT22;2391;47.212;7.542;2023-03-01T16:48:48;3.40;91.10
4755;DHT22;2391;47.212;7.542;2023-03-01T16:51:15;3.40;90.80
4755;DHT22;2391;47.212;7.542;2023-03-01T16:53:40;3.30;90.80
4755;DHT22;2391;47.212;7.542;2023-03-01T16:56:08;3.30;90.80
4755;DHT22;2391;47.212;7.542;2023-03-01T16:58:36;3.30;90.90
4755;DHT22;2391;47.212;7.542;2023-03-01T17:01:05;3.30;91.00
4755;DHT22;2391;47.212;7.542;2023-03-01T17:03:31;3.30;91.00
4755;DHT22;2391;47.212;7.542;2023-03-01T17:05:57;3.20;91.00
4755;DHT22;2391;47.212;7.542;2023-03-01T17:08:24;3.10;91.00
4755;DHT22;2391;47.212;7.542;2023-03-01T17:10:50;3.20;91.20
4755;DHT22;2391;47.212;7.542;2023-03-01T17:13:16;3.20;91.20
4755;DHT22;2391;47.212;7.542;2023-03-01T17:15:41;3.30;91.00
4755;DHT22;2391;47.212;7.542;2023-03-01T17:18:07;3.30;91.10
4755;DHT22;2391;47.212;7.542;2023-03-01T17:20:34;3.30;91.20
4755;DHT22;2391;47.212;7.542;2023-03-01T17:23:01;3.30;91.10
4755;DHT22;2391;47.212;7.542;2023-03-01T17:25:27;3.30;91.10
4755;DHT22;2391;47.212;7.542;2023-03-01T17:27:58;3.30;91.10
4755;DHT22;2391;47.212;7.542;2023-03-01T17:30:24;3.20;91.10
4755;DHT22;2391;47.212;7.542;2023-03-01T17:32:49;3.20;91.20
4755;DHT22;2391;47.212;7.542;2023-03-01T17:35:17;3.10;91.20
4755;DHT22;2391;47.212;7.542;2023-03-01T17:37:43;3.20;91.20
4755;DHT22;2391;47.212;7.542;2023-03-01T17:40:12;3.10;91.20
4755;DHT22;2391;47.212;7.542;2023-03-01T17:42:38;3.00;91.30
4755;DHT22;2391;47.212;7.542;2023-03-01T17:45:06;3.10;91.40
4755;DHT22;2391;47.212;7.542;2023-03-01T17:47:32;3.10;91.30
4755;DHT22;2391;47.212;7.542;2023-03-01T17:49:57;3.10;91.20
4755;DHT22;2391;47.212;7.542;2023-03-01T17:52:23;3.10;91.40
4755;DHT22;2391;47.212;7.542;2023-03-01T17:54:51;3.00;91.40
4755;DHT22;2391;47.212;7.542;2023-03-01T17:57:17;3.10;91.50
4755;DHT22;2391;47.212;7.542;2023-03-01T17:59:42;3.20;91.40
4755;DHT22;2391;47.212;7.542;2023-03-01T18:02:11;3.30;91.20
4755;DHT22;2391;47.212;7.542;2023-03-01T18:04:37;3.40;91.00
4755;DHT22;2391;47.212;7.542;2023-03-01T18:07:02;3.50;90.90
4755;DHT22;2391;47.212;7.542;2023-03-01T18:09:28;3.60;90.80
4755;DHT22;2391;47.212;7.542;2023-03-01T18:11:55;3.70;90.60
4755;DHT22;2391;47.212;7.542;2023-03-01T18:14:21;3.80;90.40
4755;DHT22;2391;47.212;7.542;2023-03-01T18:16:47;3.60;90.50
4755;DHT22;2391;47.212;7.542;2023-03-01T18:19:12;3.60;90.60